createdAt,value
2017-10-30T00:01:19.352Z,1.75
2017-10-30T00:03:47.513Z,2.12
2017-10-30T00:06:16.410Z,1.90
2017-10-30T00:08:44.595Z,2.58
2017-10-30T00:11:12.791Z,2.22
2017-10-30T00:13:40.943Z,2.20
2017-10-30T00:16:09.079Z,2.28
2017-10-30T00:18:37.222Z,2.17
2017-10-30T00:21:05.372Z,3.00
2017-10-30T00:23:33.532Z,3.00
2017-10-30T00:26:01.721Z,2.70
2017-10-30T00:28:34.838Z,1.95
2017-10-30T00:31:02.978Z,3.05
2017-10-30T00:33:31.131Z,2.33
2017-10-30T00:35:59.278Z,2.97
2017-10-30T00:38:29.012Z,1.70
2017-10-30T00:40:57.174Z,2.78
2017-10-30T00:43:26.085Z,2.60
2017-10-30T00:45:54.238Z,2.62
2017-10-30T00:48:22.378Z,2.22
2017-10-30T00:50:50.551Z,2.50
2017-10-30T00:53:18.756Z,2.60
2017-10-30T00:55:46.922Z,3.17
2017-10-30T00:58:15.818Z,2.30
2017-10-30T01:00:44.740Z,2.55
2017-10-30T01:03:12.919Z,3.47
2017-10-30T01:05:41.074Z,2.42
2017-10-30T01:08:09.260Z,2.53
2017-10-30T01:10:37.431Z,2.17
2017-10-30T01:13:05.575Z,3.55
2017-10-30T01:15:33.735Z,3.00
2017-10-30T01:18:02.634Z,2.53
2017-10-30T01:20:30.850Z,2.60
2017-10-30T01:22:58.983Z,3.00
2017-10-30T01:25:27.183Z,4.25
2017-10-30T01:27:55.322Z,2.62
2017-10-30T01:30:24.264Z,2.67
2017-10-30T01:32:52.764Z,2.50
2017-10-30T01:35:20.923Z,3.00
2017-10-30T01:37:49.077Z,3.00
2017-10-30T01:40:17.259Z,2.90
2017-10-30T01:42:45.398Z,2.72
2017-10-30T01:45:13.600Z,3.00
2017-10-30T01:47:41.739Z,2.70
2017-10-30T01:50:09.896Z,2.28
2017-10-30T01:52:38.802Z,4.03
2017-10-30T01:55:06.987Z,2.45
2017-10-30T01:57:35.128Z,4.07
2017-10-30T02:00:04.043Z,2.70
2017-10-30T02:02:32.659Z,3.10
2017-10-30T02:05:01.204Z,2.25
2017-10-30T02:07:29.363Z,2.53
2017-10-30T02:09:58.272Z,3.58
2017-10-30T02:12:26.430Z,3.33
2017-10-30T02:14:55.351Z,2.50
2017-10-30T02:17:23.498Z,4.40
2017-10-30T02:19:51.643Z,3.17
2017-10-30T02:22:19.872Z,2.45
2017-10-30T02:24:48.006Z,3.40
2017-10-30T02:27:16.963Z,3.53
2017-10-30T02:29:45.114Z,3.90
2017-10-30T02:32:13.265Z,3.33
2017-10-30T02:34:41.423Z,2.65
2017-10-30T02:37:09.563Z,3.47
2017-10-30T02:39:37.725Z,2.92
2017-10-30T02:42:05.873Z,4.40
2017-10-30T02:44:34.039Z,3.05
2017-10-30T02:47:02.399Z,3.35
2017-10-30T02:49:30.556Z,3.70
2017-10-30T02:51:59.483Z,2.85
2017-10-30T02:54:27.639Z,4.05
2017-10-30T02:56:56.503Z,3.15
2017-10-30T02:59:25.539Z,3.62
2017-10-30T03:01:53.686Z,2.90
2017-10-30T03:04:21.843Z,2.92
2017-10-30T03:06:50.760Z,2.85
2017-10-30T03:09:18.924Z,2.90
2017-10-30T03:11:47.078Z,3.30
2017-10-30T03:14:16.000Z,3.92
2017-10-30T03:16:44.192Z,2.40
2017-10-30T03:19:12.335Z,3.15
2017-10-30T03:21:40.515Z,3.35
2017-10-30T03:24:08.659Z,4.12
2017-10-30T03:26:37.590Z,2.60
2017-10-30T03:29:06.687Z,3.67
2017-10-30T03:31:34.854Z,3.60
2017-10-30T03:34:02.992Z,4.15
2017-10-30T03:36:31.911Z,2.90
2017-10-30T03:39:00.062Z,3.80
2017-10-30T03:41:28.687Z,3.25
2017-10-30T03:43:56.856Z,3.50
2017-10-30T03:46:25.108Z,3.10
2017-10-30T03:48:53.878Z,3.37
2017-10-30T03:51:22.806Z,3.28
2017-10-30T03:53:50.947Z,3.67
2017-10-30T03:56:19.104Z,5.82
2017-10-30T03:58:48.016Z,4.00
2017-10-30T04:01:16.215Z,2.78
2017-10-30T04:03:44.354Z,4.40
2017-10-30T04:06:12.532Z,3.62
2017-10-30T04:08:40.670Z,3.50
2017-10-30T04:11:08.816Z,2.80
2017-10-30T04:13:36.964Z,3.22
2017-10-30T04:16:05.142Z,2.45
2017-10-30T04:18:33.302Z,2.67
2017-10-30T04:21:01.447Z,2.75
2017-10-30T04:23:30.395Z,2.85
2017-10-30T04:25:58.552Z,2.55
2017-10-30T04:28:26.717Z,2.30
2017-10-30T04:30:54.851Z,2.10
2017-10-30T04:33:23.779Z,2.15
2017-10-30T04:35:51.918Z,1.85
2017-10-30T04:38:20.839Z,1.80
2017-10-30T04:40:49.019Z,2.03
2017-10-30T04:43:17.291Z,2.45
2017-10-30T04:45:45.455Z,2.03
2017-10-30T04:48:13.599Z,1.62
2017-10-30T04:50:42.498Z,1.65
2017-10-30T04:53:11.418Z,2.20
2017-10-30T04:55:39.555Z,2.58
2017-10-30T04:58:08.529Z,2.10
2017-10-30T05:00:37.448Z,2.15
2017-10-30T05:03:06.301Z,2.30
2017-10-30T05:05:34.461Z,2.30
2017-10-30T05:08:02.612Z,2.40
2017-10-30T05:10:30.770Z,1.95
2017-10-30T05:12:58.904Z,2.75
2017-10-30T05:15:27.847Z,2.20
2017-10-30T05:17:55.995Z,2.55
2017-10-30T05:20:24.167Z,2.10
2017-10-30T05:22:52.311Z,2.33
2017-10-30T05:25:20.540Z,2.20
2017-10-30T05:27:48.683Z,2.65
2017-10-30T05:30:16.864Z,3.78
2017-10-30T05:32:45.471Z,1.98
2017-10-30T05:35:13.679Z,2.12
2017-10-30T05:37:42.626Z,1.90
2017-10-30T05:40:10.798Z,1.90
2017-10-30T05:42:38.930Z,2.00
2017-10-30T05:45:07.839Z,2.53
2017-10-30T05:47:36.001Z,1.62
2017-10-30T05:50:04.148Z,2.78
2017-10-30T05:52:32.307Z,2.12
2017-10-30T05:55:00.465Z,1.87
2017-10-30T05:57:28.621Z,2.30
2017-10-30T05:59:56.806Z,2.70
2017-10-30T06:02:24.962Z,2.25
2017-10-30T06:04:53.112Z,2.40
2017-10-30T06:07:22.028Z,1.95
2017-10-30T06:09:50.178Z,1.95
2017-10-30T06:12:18.419Z,2.30
2017-10-30T06:14:46.934Z,2.25
2017-10-30T06:17:15.448Z,4.12
2017-10-30T06:19:43.609Z,2.33
2017-10-30T06:22:11.790Z,2.40
2017-10-30T06:24:39.950Z,2.35
2017-10-30T06:27:08.111Z,2.50
2017-10-30T06:29:36.242Z,3.20
2017-10-30T06:32:04.391Z,3.08
2017-10-30T06:34:32.528Z,2.40
2017-10-30T06:37:00.720Z,1.87
2017-10-30T06:39:28.880Z,3.20
2017-10-30T06:41:57.025Z,2.40
2017-10-30T06:44:25.960Z,2.85
2017-10-30T06:46:54.094Z,2.50
2017-10-30T06:49:23.076Z,3.33
2017-10-30T06:51:51.975Z,3.20
2017-10-30T06:54:20.893Z,2.65
2017-10-30T06:56:49.030Z,3.72
2017-10-30T06:59:17.961Z,2.40
2017-10-30T07:01:46.135Z,2.95
2017-10-30T07:04:14.308Z,2.40
2017-10-30T07:06:42.460Z,2.95
2017-10-30T07:09:10.617Z,2.47
2017-10-30T07:11:38.758Z,3.25
2017-10-30T07:14:06.920Z,3.12
2017-10-30T07:16:35.071Z,2.08
2017-10-30T07:19:03.251Z,3.83
2017-10-30T07:21:31.654Z,3.67
2017-10-30T07:23:59.798Z,2.83
2017-10-30T07:26:27.951Z,2.60
2017-10-30T07:28:56.114Z,2.97
2017-10-30T07:31:25.043Z,2.87
2017-10-30T07:33:53.195Z,2.50
2017-10-30T07:36:21.405Z,2.60
2017-10-30T07:38:49.556Z,2.60
2017-10-30T07:41:17.727Z,2.30
2017-10-30T07:43:45.866Z,3.37
2017-10-30T07:46:14.030Z,2.17
2017-10-30T07:48:42.934Z,3.85
2017-10-30T07:51:11.096Z,2.97
2017-10-30T07:53:39.239Z,2.62
2017-10-30T07:56:07.395Z,2.17
2017-10-30T07:58:35.535Z,2.05
2017-10-30T08:01:03.679Z,2.55
2017-10-30T08:03:32.603Z,3.22
2017-10-30T08:06:00.764Z,2.72
2017-10-30T08:08:28.929Z,2.22
2017-10-30T08:10:57.083Z,2.55
2017-10-30T08:13:26.016Z,1.98
2017-10-30T08:15:54.190Z,2.90
2017-10-30T08:18:22.353Z,2.90
2017-10-30T08:20:50.539Z,2.50
2017-10-30T08:23:18.699Z,2.40
2017-10-30T08:25:46.844Z,2.25
2017-10-30T08:28:16.484Z,2.12
2017-10-30T08:30:44.623Z,2.42
2017-10-30T08:33:13.547Z,2.20
2017-10-30T08:35:41.695Z,1.92
2017-10-30T08:38:09.855Z,2.00
2017-10-30T08:40:38.787Z,1.80
2017-10-30T08:43:06.943Z,1.60
2017-10-30T08:45:35.140Z,2.60
2017-10-30T08:48:03.307Z,2.85
2017-10-30T08:50:31.487Z,3.08
2017-10-30T08:52:59.643Z,2.30
2017-10-30T08:55:27.802Z,2.78
2017-10-30T08:57:55.963Z,2.10
2017-10-30T09:00:24.973Z,2.40
2017-10-30T09:02:53.132Z,3.77
2017-10-30T09:05:21.300Z,2.47
2017-10-30T09:07:50.218Z,2.00
2017-10-30T09:10:18.382Z,1.77
2017-10-30T09:12:46.572Z,3.50
2017-10-30T09:15:14.727Z,2.90
2017-10-30T09:17:42.884Z,2.20
2017-10-30T09:20:11.782Z,2.00
2017-10-30T09:22:39.952Z,2.27
2017-10-30T09:25:08.104Z,2.33
2017-10-30T09:27:37.051Z,2.33
2017-10-30T09:30:06.119Z,2.93
2017-10-30T09:32:34.275Z,1.90
2017-10-30T09:35:03.187Z,2.40
2017-10-30T09:37:31.346Z,3.50
2017-10-30T09:39:59.490Z,2.77
2017-10-30T09:42:27.724Z,2.27
2017-10-30T09:44:55.875Z,2.70
2017-10-30T09:47:24.042Z,2.47
2017-10-30T09:49:52.189Z,1.80
2017-10-30T09:52:21.118Z,2.30
2017-10-30T09:54:49.258Z,2.23
2017-10-30T09:57:18.174Z,1.97
2017-10-30T09:59:46.344Z,2.07
2017-10-30T10:02:14.499Z,2.40
2017-10-30T10:04:43.426Z,1.97
2017-10-30T10:07:11.582Z,2.17
2017-10-30T10:09:39.738Z,1.93
2017-10-30T10:12:07.943Z,2.37
2017-10-30T10:14:36.115Z,1.80
2017-10-30T10:17:04.261Z,1.90
2017-10-30T10:19:32.428Z,1.90
2017-10-30T10:22:00.570Z,1.50
2017-10-30T10:24:28.815Z,2.50
2017-10-30T10:26:56.963Z,1.87
2017-10-30T10:29:25.138Z,1.83
2017-10-30T10:31:53.297Z,3.10
2017-10-30T10:34:21.483Z,1.80
2017-10-30T10:36:49.638Z,1.27
2017-10-30T10:39:18.568Z,1.40
2017-10-30T10:41:46.734Z,1.60
2017-10-30T10:44:14.892Z,1.57
2017-10-30T10:46:43.067Z,1.53
2017-10-30T10:49:11.227Z,2.00
2017-10-30T10:51:39.421Z,2.10
2017-10-30T10:54:07.604Z,2.33
2017-10-30T10:56:35.784Z,1.50
2017-10-30T10:59:03.938Z,1.53
2017-10-30T11:01:32.107Z,1.50
2017-10-30T11:04:00.243Z,2.10
2017-10-30T11:06:29.175Z,2.00
2017-10-30T11:08:58.118Z,1.43
2017-10-30T11:11:26.346Z,1.90
2017-10-30T11:13:54.919Z,1.87
2017-10-30T11:16:23.123Z,1.63
2017-10-30T11:18:51.371Z,1.60
2017-10-30T11:21:19.523Z,1.60
2017-10-30T11:23:47.683Z,1.47
2017-10-30T11:26:15.852Z,1.67
2017-10-30T11:28:44.788Z,2.40
2017-10-30T11:31:12.934Z,1.47
2017-10-30T11:33:41.097Z,1.70
2017-10-30T11:36:10.002Z,1.80
2017-10-30T11:38:38.170Z,4.00
2017-10-30T11:41:06.311Z,1.80
2017-10-30T11:43:34.472Z,1.70
2017-10-30T11:46:02.765Z,1.90
2017-10-30T11:48:31.697Z,1.90
2017-10-30T11:50:59.845Z,2.37
2017-10-30T11:53:28.776Z,1.87
2017-10-30T11:55:56.941Z,1.70
2017-10-30T11:58:25.122Z,1.83
2017-10-30T12:00:53.275Z,1.80
2017-10-30T12:03:21.406Z,1.70
2017-10-30T12:05:50.343Z,2.27
2017-10-30T12:08:18.508Z,2.20
2017-10-30T12:10:46.670Z,2.67
2017-10-30T12:13:14.816Z,1.73
2017-10-30T12:15:43.746Z,2.20
2017-10-30T12:18:11.887Z,1.57
2017-10-30T12:20:40.925Z,2.03
2017-10-30T12:23:09.079Z,2.70
2017-10-30T12:25:37.249Z,2.03
2017-10-30T12:28:05.413Z,1.70
2017-10-30T12:30:34.221Z,1.60
2017-10-30T12:33:02.362Z,1.67
2017-10-30T12:35:31.319Z,2.40
2017-10-30T12:38:00.239Z,1.67
2017-10-30T12:40:29.156Z,2.03
2017-10-30T12:42:58.215Z,1.60
2017-10-30T12:45:27.137Z,1.67
2017-10-30T12:47:55.299Z,1.83
2017-10-30T12:50:23.457Z,1.50
2017-10-30T12:52:52.403Z,2.93
2017-10-30T12:55:20.567Z,3.27
2017-10-30T12:57:48.745Z,2.00
2017-10-30T13:00:17.583Z,1.70
2017-10-30T13:02:46.522Z,2.00
2017-10-30T13:05:14.663Z,2.80
2017-10-30T13:07:42.831Z,2.20
2017-10-30T13:10:10.982Z,1.80
2017-10-30T13:12:39.975Z,1.70
2017-10-30T13:15:08.890Z,1.63
2017-10-30T13:17:37.168Z,1.60
2017-10-30T13:20:05.333Z,1.50
2017-10-30T13:22:33.536Z,1.87
2017-10-30T13:25:01.687Z,1.90
2017-10-30T13:27:29.851Z,1.70
2017-10-30T13:29:58.773Z,1.80
2017-10-30T13:32:26.938Z,1.90
2017-10-30T13:34:55.070Z,1.90
2017-10-30T13:37:23.991Z,2.20
2017-10-30T13:39:52.218Z,1.90
2017-10-30T13:42:20.372Z,2.13
2017-10-30T13:44:48.637Z,1.83
2017-10-30T13:47:16.798Z,2.10
2017-10-30T13:49:44.969Z,2.07
2017-10-30T13:52:13.115Z,2.20
2017-10-30T13:54:41.937Z,1.87
2017-10-30T13:57:10.208Z,1.83
2017-10-30T13:59:38.385Z,2.00
2017-10-30T14:02:06.538Z,1.70
2017-10-30T14:04:34.703Z,1.97
2017-10-30T14:07:02.870Z,2.30
2017-10-30T14:09:31.484Z,2.00
2017-10-30T14:11:59.655Z,2.00
2017-10-30T14:14:27.825Z,1.70
2017-10-30T14:16:56.006Z,2.20
2017-10-30T14:19:24.181Z,2.00
2017-10-30T14:21:52.331Z,2.17
2017-10-30T14:24:20.477Z,2.63
2017-10-30T14:26:49.426Z,1.90
2017-10-30T14:29:17.567Z,1.83
2017-10-30T14:31:45.737Z,2.17
2017-10-30T14:34:13.927Z,2.00
2017-10-30T14:36:42.092Z,1.80
2017-10-30T14:39:10.266Z,2.40
2017-10-30T14:41:38.437Z,2.10
2017-10-30T14:44:06.582Z,2.60
2017-10-30T14:46:35.513Z,2.07
2017-10-30T14:49:03.673Z,2.00
2017-10-30T14:51:31.840Z,2.10
2017-10-30T14:53:59.983Z,1.93
2017-10-30T14:56:28.913Z,2.00
2017-10-30T14:58:57.086Z,2.00
2017-10-30T15:01:25.255Z,2.20
2017-10-30T15:03:53.398Z,1.80
2017-10-30T15:06:22.439Z,1.90
2017-10-30T15:08:50.713Z,1.93
2017-10-30T15:11:18.933Z,2.40
2017-10-30T15:13:47.846Z,1.93
2017-10-30T15:16:16.019Z,1.87
2017-10-30T15:18:44.196Z,1.73
2017-10-30T15:21:12.357Z,1.60
2017-10-30T15:23:40.515Z,1.83
2017-10-30T15:26:09.415Z,1.53
2017-10-30T15:28:37.620Z,1.80
2017-10-30T15:31:05.762Z,2.77
2017-10-30T15:33:33.967Z,1.83
2017-10-30T15:36:02.107Z,1.87
2017-10-30T15:38:31.106Z,1.90
2017-10-30T15:40:59.250Z,2.20
2017-10-30T15:43:27.408Z,1.60
2017-10-30T15:45:55.565Z,1.97
2017-10-30T15:48:23.730Z,1.67
2017-10-30T15:50:51.870Z,1.77
2017-10-30T15:53:20.051Z,2.13
2017-10-30T15:55:48.191Z,1.70
2017-10-30T15:58:17.119Z,2.40
2017-10-30T16:00:45.252Z,1.90
2017-10-30T16:03:14.171Z,2.70
2017-10-30T16:05:42.319Z,2.83
2017-10-30T16:08:11.236Z,2.27
2017-10-30T16:10:39.439Z,1.93
2017-10-30T16:13:07.592Z,1.85
2017-10-30T16:15:35.751Z,1.50
2017-10-30T16:18:03.900Z,2.10
2017-10-30T16:20:32.821Z,1.47
2017-10-30T16:23:00.966Z,1.60
2017-10-30T16:25:30.106Z,2.30
2017-10-30T16:27:58.243Z,2.00
2017-10-30T16:30:26.446Z,1.83
2017-10-30T16:32:54.687Z,2.10
2017-10-30T16:35:23.611Z,2.27
2017-10-30T16:37:51.805Z,2.47
2017-10-30T16:40:20.071Z,1.90
2017-10-30T16:42:48.235Z,2.20
2017-10-30T16:45:16.405Z,2.00
2017-10-30T16:47:44.572Z,2.12
2017-10-30T16:50:12.722Z,2.30
2017-10-30T16:52:41.750Z,1.87
2017-10-30T16:55:10.416Z,2.10
2017-10-30T16:57:38.626Z,1.92
2017-10-30T17:00:06.780Z,2.05
2017-10-30T17:02:34.958Z,1.60
2017-10-30T17:05:03.107Z,2.10
2017-10-30T17:07:31.359Z,1.98
2017-10-30T17:10:00.263Z,2.67
2017-10-30T17:12:28.448Z,3.22
2017-10-30T17:14:56.601Z,2.60
2017-10-30T17:17:24.816Z,2.80
2017-10-30T17:19:52.972Z,2.45
2017-10-30T17:22:21.122Z,1.73
2017-10-30T17:24:49.268Z,2.33
2017-10-30T17:27:18.506Z,2.33
2017-10-30T17:29:46.649Z,2.40
2017-10-30T17:32:15.594Z,1.98
2017-10-30T17:34:43.742Z,2.33
2017-10-30T17:37:12.794Z,2.50
2017-10-30T17:39:41.936Z,2.60
2017-10-30T17:42:10.123Z,2.45
2017-10-30T17:44:38.278Z,2.47
2017-10-30T17:47:06.415Z,2.25
2017-10-30T17:49:35.339Z,2.50
2017-10-30T17:52:03.514Z,2.42
2017-10-30T17:54:31.670Z,2.10
2017-10-30T17:56:59.807Z,2.72
2017-10-30T17:59:28.028Z,2.67
2017-10-30T18:01:56.254Z,3.00
2017-10-30T18:04:24.423Z,3.22
2017-10-30T18:06:52.834Z,2.83
2017-10-30T18:09:22.375Z,2.45
2017-10-30T18:11:50.519Z,2.85
2017-10-30T18:14:18.728Z,2.42
2017-10-30T18:16:46.930Z,2.75
2017-10-30T18:19:15.098Z,2.45
2017-10-30T18:21:43.278Z,2.65
2017-10-30T18:24:11.512Z,2.22
2017-10-30T18:26:39.667Z,2.53
2017-10-30T18:29:07.827Z,2.80
2017-10-30T18:31:35.988Z,2.47
2017-10-30T18:34:04.928Z,2.70
2017-10-30T18:36:33.106Z,2.80
2017-10-30T18:39:01.275Z,3.12
2017-10-30T18:41:29.440Z,3.35
2017-10-30T18:43:57.600Z,3.75
2017-10-30T18:46:25.803Z,3.95
2017-10-30T18:48:53.962Z,4.43
2017-10-30T18:51:22.591Z,4.10
2017-10-30T18:53:51.520Z,3.58
2017-10-30T18:56:19.672Z,3.70
2017-10-30T18:58:47.871Z,4.00
2017-10-30T19:01:16.854Z,8.18
2017-10-30T19:03:45.024Z,4.10
2017-10-30T19:06:13.167Z,3.90
2017-10-30T19:08:42.094Z,4.05
2017-10-30T19:11:10.252Z,3.25
2017-10-30T19:13:38.409Z,4.15
2017-10-30T19:16:06.587Z,4.00
2017-10-30T19:18:34.758Z,3.65
2017-10-30T19:21:03.671Z,2.83
2017-10-30T19:23:31.859Z,3.03
2017-10-30T19:26:00.055Z,3.92
2017-10-30T19:28:28.241Z,3.40
2017-10-30T19:30:56.399Z,3.40
2017-10-30T19:33:24.691Z,4.18
2017-10-30T19:35:52.848Z,3.80
2017-10-30T19:38:20.993Z,3.92
2017-10-30T19:40:49.151Z,4.10
2017-10-30T19:43:17.922Z,2.95
2017-10-30T19:45:46.914Z,2.75
2017-10-30T19:48:15.839Z,3.30
2017-10-30T19:50:43.997Z,2.40
2017-10-30T19:53:12.160Z,3.33
2017-10-30T19:55:40.322Z,3.00
2017-10-30T19:58:09.352Z,2.58
2017-10-30T20:00:37.531Z,2.72
2017-10-30T20:03:05.664Z,2.70
2017-10-30T20:05:40.716Z,2.50
2017-10-30T20:11:13.811Z,2.80
2017-10-30T20:13:41.964Z,2.67
2017-10-30T20:16:10.917Z,2.42
2017-10-30T20:18:39.072Z,2.70
2017-10-30T20:21:07.207Z,2.90
2017-10-30T20:23:36.143Z,3.35
2017-10-30T20:26:04.299Z,3.10
2017-10-30T20:28:32.459Z,3.67
2017-10-30T20:31:00.618Z,4.12
2017-10-30T20:33:29.558Z,6.12
2017-10-30T20:35:57.710Z,4.20
2017-10-30T20:38:25.894Z,4.97
2017-10-30T20:40:54.086Z,5.18
2017-10-30T20:43:22.255Z,5.15
2017-10-30T20:45:50.416Z,4.43
2017-10-30T20:48:18.591Z,3.80
2017-10-30T20:50:46.728Z,3.50
2017-10-30T20:53:14.935Z,4.03
2017-10-30T20:55:43.103Z,2.95
2017-10-30T20:58:11.279Z,3.53
2017-10-30T21:00:39.433Z,3.05
2017-10-30T21:03:07.646Z,3.40
2017-10-30T21:05:35.816Z,3.30
2017-10-30T21:08:03.954Z,3.25
2017-10-30T21:10:32.120Z,5.00
2017-10-30T21:13:00.278Z,3.03
2017-10-30T21:15:28.484Z,4.40
2017-10-30T21:17:56.633Z,3.55
2017-10-30T21:20:24.794Z,3.65
2017-10-30T21:22:54.437Z,3.70
2017-10-30T21:25:22.594Z,3.92
2017-10-30T21:27:50.759Z,3.85
2017-10-30T21:30:18.934Z,3.65
2017-10-30T21:32:47.074Z,3.37
2017-10-30T21:35:15.257Z,3.12
2017-10-30T21:37:44.332Z,3.35
2017-10-30T21:40:12.486Z,3.85
2017-10-30T21:42:40.749Z,3.95
2017-10-30T21:45:08.885Z,3.83
2017-10-30T21:47:37.800Z,3.70
2017-10-30T21:50:05.952Z,2.90
2017-10-30T21:52:34.111Z,3.65
2017-10-30T21:55:02.252Z,3.20
2017-10-30T21:57:30.419Z,3.35
2017-10-30T21:59:58.565Z,3.15
2017-10-30T22:02:26.714Z,3.33
2017-10-30T22:04:54.852Z,3.97
2017-10-30T22:07:23.179Z,3.40
2017-10-30T22:09:51.363Z,3.28
2017-10-30T22:12:21.030Z,3.20
2017-10-30T22:14:49.926Z,3.60
2017-10-30T22:17:18.132Z,3.25
2017-10-30T22:19:46.843Z,3.30
2017-10-30T22:22:14.987Z,3.15
2017-10-30T22:24:43.226Z,2.65
2017-10-30T22:27:12.122Z,3.97
2017-10-30T22:29:40.426Z,3.90
2017-10-30T22:32:08.626Z,4.03
2017-10-30T22:34:36.777Z,2.90
2017-10-30T22:37:04.911Z,3.78
2017-10-30T22:39:33.830Z,3.65
2017-10-30T22:42:01.972Z,3.62
2017-10-30T22:44:30.899Z,3.80
2017-10-30T22:46:59.045Z,3.15
2017-10-30T22:49:27.203Z,4.05
2017-10-30T22:51:56.108Z,3.33
2017-10-30T22:54:24.310Z,3.75
2017-10-30T22:56:52.455Z,3.45
2017-10-30T22:59:20.602Z,2.92
2017-10-30T23:01:49.530Z,4.00
2017-10-30T23:04:18.375Z,3.20
2017-10-30T23:06:46.548Z,3.47
2017-10-30T23:09:14.695Z,4.15
2017-10-30T23:11:42.951Z,3.20
2017-10-30T23:14:11.095Z,2.97
2017-10-30T23:16:39.315Z,3.65
2017-10-30T23:19:07.456Z,3.72
2017-10-30T23:21:35.647Z,3.37
2017-10-30T23:24:04.503Z,3.40
2017-10-30T23:26:32.678Z,3.25
2017-10-30T23:29:00.825Z,3.37
2017-10-30T23:31:29.767Z,3.42
2017-10-30T23:33:57.939Z,3.03
2017-10-30T23:36:26.548Z,3.67
2017-10-30T23:38:54.733Z,5.50
2017-10-30T23:41:22.874Z,4.47
2017-10-30T23:43:51.022Z,2.72
2017-10-30T23:46:19.171Z,3.50
2017-10-30T23:48:48.110Z,4.30
2017-10-30T23:51:16.247Z,3.50
2017-10-30T23:53:44.390Z,3.22
2017-10-30T23:56:13.143Z,3.30
2017-10-30T23:58:41.283Z,4.05
